Time;durP1;ratioP1;P1;durP2;ratioP2;P2;SDS_P1;SDS_P2;PMS_P1;PMS_P2;Temp;Humidity;BMP_temperature;BMP_pressure;BME280_temperature;BME280_humidity;BME280_pressure;Samples;Min_cycle;Max_cycle;Signal;HPM_P1;HPM_P2
2021/04/28 06:23:04;;;;;;;10.05;7.88;;;;;;;;;;12643898;23;20014;-86
2021/04/28 06:28:28;;;;;;;8.05;5.63;;;;;;;;;;12819092;23;20511;-85
2021/04/28 06:33:43;;;;;;;7.25;4.45;;;;;;;;;;12842968;23;20020;-86
2021/04/28 06:38:46;;;;;;;5.47;4.90;;;;;;;;;;12863443;23;20035;-86
2021/04/28 06:43:47;;;;;;;5.22;4.57;;;;;;;;;;12801478;23;20005;-86
2021/04/28 06:48:48;;;;;;;7.38;6.32;;;;;;;;;;12800597;23;20381;-86
2021/04/28 06:53:52;;;;;;;7.68;6.35;;;;;;;;;;12800219;23;20005;-86
2021/04/28 06:58:53;;;;;;;3.33;2.53;;;;;;;;;;12807432;23;20009;-83
2021/04/28 07:03:54;;;;;;;8.38;4.47;;;;;;;;;;12801728;23;20005;-84
2021/04/28 07:09:10;;;;;;;6.22;4.00;;;;;;;;;;12816210;23;20426;-84
2021/04/28 07:14:12;;;;;;;5.38;3.50;;;;;;;;;;12788583;23;20064;-84
2021/04/28 07:19:13;;;;;;;5.40;3.95;;;;;;;;;;12788361;23;20012;-84
2021/04/28 07:24:14;;;;;;;5.82;4.22;;;;;;;;;;12786788;23;20047;-82
2021/04/28 07:29:15;;;;;;;5.88;5.03;;;;;;;;;;12787253;23;20040;-82
2021/04/28 07:34:16;;;;;;;8.32;4.63;;;;;;;;;;12787280;23;20032;-83
2021/04/28 07:39:22;;;;;;;7.90;4.38;;;;;;;;;;12786839;23;20016;-84
2021/04/28 07:44:57;;;;;;;4.53;3.95;;;;;;;;;;12785692;23;20318;-83
2021/04/28 07:50:17;;;;;;;7.55;3.95;;;;;;;;;;12812094;23;20020;-84
2021/04/28 08:06:36;;;;;;;6.95;4.53;;;;;;;;;;12813333;23;20013;-85
2021/04/28 08:11:38;;;;;;;4.70;4.18;;;;;;;;;;12785921;23;20301;-82
2021/04/28 08:16:39;;;;;;;6.13;4.13;;;;;;;;;;12785441;23;20004;-84
2021/04/28 08:21:41;;;;;;;7.05;4.80;;;;;;;;;;12794904;23;20013;-85
2021/04/28 08:26:42;;;;;;;6.82;5.93;;;;;;;;;;12786753;23;20496;-82
2021/04/28 08:31:53;;;;;;;7.85;5.60;;;;;;;;;;12787562;23;20005;-84
2021/04/28 08:37:00;;;;;;;5.97;5.00;;;;;;;;;;12794953;23;20061;-83
2021/04/28 08:42:03;;;;;;;8.07;5.95;;;;;;;;;;12782952;23;20002;-82
2021/04/28 08:47:04;;;;;;;5.25;4.70;;;;;;;;;;12786343;23;20082;-85
2021/04/28 08:52:28;;;;;;;10.00;6.10;;;;;;;;;;12785841;23;20005;-85
2021/04/28 08:57:35;;;;;;;6.47;5.10;;;;;;;;;;12784709;23;20005;-84
2021/04/28 09:03:16;;;;;;;6.10;5.18;;;;;;;;;;12811402;23;20452;-85
2021/04/28 09:08:28;;;;;;;5.68;4.30;;;;;;;;;;12787769;23;20445;-84
2021/04/28 09:13:37;;;;;;;7.15;6.40;;;;;;;;;;12786883;23;20008;-85
2021/04/28 09:18:39;;;;;;;7.43;5.18;;;;;;;;;;12787918;23;20012;-85
2021/04/28 09:23:41;;;;;;;6.72;5.72;;;;;;;;;;12784072;23;20025;-85
2021/04/28 09:29:01;;;;;;;8.13;6.82;;;;;;;;;;12783288;23;20005;-85
2021/04/28 09:34:05;;;;;;;7.65;6.90;;;;;;;;;;12787258;23;20070;-85
2021/04/28 09:39:08;;;;;;;7.22;5.82;;;;;;;;;;12785135;23;20008;-85
2021/04/28 09:44:23;;;;;;;7.28;6.53;;;;;;;;;;12797153;23;20016;-86
2021/04/28 09:49:25;;;;;;;8.73;7.93;;;;;;;;;;12812989;23;20060;-85
2021/04/28 09:54:30;;;;;;;6.57;5.55;;;;;;;;;;12786146;23;20341;-83
2021/04/28 10:05:22;;;;;;;10.63;6.78;;;;;;;;;;12815335;23;20009;-86
2021/04/28 10:10:23;;;;;;;9.90;6.88;;;;;;;;;;12790475;23;20005;-84
2021/04/28 10:15:27;;;;;;;7.50;6.43;;;;;;;;;;12791175;23;20020;-84
2021/04/28 10:20:31;;;;;;;8.23;7.35;;;;;;;;;;12811532;23;20005;-84
2021/04/28 10:25:32;;;;;;;9.90;6.65;;;;;;;;;;12816158;23;20017;-83
2021/04/28 10:30:35;;;;;;;8.73;7.55;;;;;;;;;;12820110;23;20465;-83
2021/04/28 10:35:45;;;;;;;5.50;4.90;;;;;;;;;;12808113;23;20319;-84
2021/04/28 10:40:47;;;;;;;7.97;7.18;;;;;;;;;;12804904;23;20068;-88
2021/04/28 10:45:54;;;;;;;8.00;6.65;;;;;;;;;;12825625;23;20075;-85
2021/04/28 10:51:08;;;;;;;8.63;6.80;;;;;;;;;;12829716;23;19997;-84
2021/04/28 10:56:48;;;;;;;;;;;;;;;;;;;;;
2021/04/28 11:02:07;;;;;;;8.13;7.22;;;;;;;;;;12820715;23;20001;-85
2021/04/28 11:07:13;;;;;;;;;;;;;;;;;;12793174;23;20004;-85
2021/04/28 11:12:29;;;;;;;6.28;5.40;;;;;;;;;;12786244;23;19912;-86
2021/04/28 11:17:33;;;;;;;8.35;7.65;;;;;;;;;;12791688;23;20090;-85
2021/04/28 11:28:08;;;;;;;9.30;7.57;;;;;;;;;;12715649;23;20009;-84
2021/04/28 11:33:12;;;;;;;7.88;7.13;;;;;;;;;;12787582;23;20007;-84
2021/04/28 11:38:18;;;;;;;5.68;5.13;;;;;;;;;;12790286;23;20006;-84
2021/04/28 11:43:24;;;;;;;7.53;6.85;;;;;;;;;;12812090;23;20004;-84
2021/04/28 11:48:25;;;;;;;7.20;6.57;;;;;;;;;;12787435;23;20036;-85
2021/04/28 11:53:33;;;;;;;7.10;6.40;;;;;;;;;;12782875;23;20016;-85
2021/04/28 11:58:41;;;;;;;8.47;7.30;;;;;;;;;;12811392;23;19993;-84
2021/04/28 12:03:59;;;;;;;7.43;6.72;;;;;;;;;;12787280;23;20008;-84
2021/04/28 12:09:30;;;;;;;8.03;7.33;;;;;;;;;;12799077;23;20005;-84
2021/04/28 12:14:34;;;;;;;6.65;6.05;;;;;;;;;;12782194;23;20268;-83
2021/04/28 12:36:51;;;;;;;6.45;5.85;;;;;;;;;;12462672;23;20031;-84
2021/04/28 12:42:36;;;;;;;8.20;7.07;;;;;;;;;;12273047;24;20021;-85
2021/04/28 12:54:15;;;;;;;6.80;6.10;;;;;;;;;;12272047;24;20485;-85
2021/04/28 15:53:48;;;;;;;;;;;;;;;;;;;;;
2021/04/28 16:21:47;;;;;;;5.80;5.20;;;;;;;;;;12654368;23;20026;-84
2021/04/28 16:26:51;;;;;;;7.80;7.00;;;;;;;;;;12710766;23;20013;-84
2021/04/28 16:32:14;;;;;;;;;;;;;;;;;;;;;
2021/04/28 16:37:37;;;;;;;7.80;6.90;;;;;;;;;;12764323;23;20061;-85
2021/04/28 16:43:32;;;;;;;;;;;;;;;;;;;;;
2021/04/28 16:54:12;;;;;;;8.00;7.30;;;;;;;;;;12527066;23;20011;-86
2021/04/28 16:59:19;;;;;;;7.57;6.53;;;;;;;;;;12517396;23;20095;-85
2021/04/28 17:04:26;;;;;;;9.95;7.78;;;;;;;;;;12516154;23;20007;-84
2021/04/28 17:15:01;;;;;;;8.25;6.45;;;;;;;;;;12707257;23;20044;-87
2021/04/28 17:20:10;;;;;;;9.02;6.53;;;;;;;;;;12762186;23;19994;-85
2021/04/28 17:25:24;;;;;;;6.18;5.57;;;;;;;;;;12760171;23;20005;-85
2021/04/28 17:36:07;;;;;;;8.57;6.97;;;;;;;;;;12701698;23;20013;-85
2021/04/28 17:47:05;;;;;;;7.80;6.28;;;;;;;;;;12702858;23;20009;-85
2021/04/28 17:52:07;;;;;;;7.07;6.28;;;;;;;;;;12756835;23;20097;-84
2021/04/28 17:57:40;;;;;;;5.07;4.57;;;;;;;;;;12759831;23;20021;-87
2021/04/28 18:03:10;;;;;;;7.05;6.35;;;;;;;;;;12759877;23;20010;-85
2021/04/28 18:08:13;;;;;;;7.75;6.82;;;;;;;;;;12692796;23;20010;-85
2021/04/28 18:13:33;;;;;;;7.32;5.43;;;;;;;;;;12733513;23;20460;-86
2021/04/28 18:18:41;;;;;;;6.93;6.05;;;;;;;;;;12761057;23;20005;-86
2021/04/28 18:23:53;;;;;;;6.80;6.20;;;;;;;;;;12756280;23;20005;-86
2021/04/28 18:28:54;;;;;;;10.40;7.90;;;;;;;;;;12756577;23;20006;-86
2021/04/28 18:34:07;;;;;;;7.03;6.32;;;;;;;;;;12758253;23;20029;-86
2021/04/28 18:39:10;;;;;;;6.65;6.03;;;;;;;;;;12757611;23;20006;-86
2021/04/28 18:50:32;;;;;;;7.60;6.28;;;;;;;;;;12731965;23;20017;-85
2021/04/28 19:01:06;;;;;;;8.32;6.05;;;;;;;;;;12706521;23;20017;-85
2021/04/28 19:06:11;;;;;;;6.43;5.57;;;;;;;;;;12761756;23;20056;-86
2021/04/28 19:17:11;;;;;;;;;;;;;;;;;;;;;
2021/04/28 19:22:12;;;;;;;7.03;6.05;;;;;;;;;;12762559;23;20005;-85
2021/04/28 19:27:17;;;;;;;7.85;7.05;;;;;;;;;;12752581;23;20005;-85
2021/04/28 19:32:32;;;;;;;15.68;9.88;;;;;;;;;;12758685;23;20064;-86
2021/04/28 19:37:43;;;;;;;10.60;9.38;;;;;;;;;;12763623;23;19998;-86
2021/04/28 19:42:52;;;;;;;12.18;10.35;;;;;;;;;;12765071;23;20013;-85
2021/04/28 19:48:22;;;;;;;10.38;9.30;;;;;;;;;;12762437;23;20005;-86
2021/04/28 19:53:26;;;;;;;10.68;9.43;;;;;;;;;;12759316;23;20005;-85
2021/04/28 19:58:34;;;;;;;10.68;8.20;;;;;;;;;;12752051;23;20001;-85
2021/04/28 20:03:39;;;;;;;12.07;10.88;;;;;;;;;;12752331;23;20012;-85
2021/04/28 20:08:40;;;;;;;9.27;7.35;;;;;;;;;;12755299;23;20005;-85
2021/04/28 20:13:42;;;;;;;8.93;8.10;;;;;;;;;;12753275;23;20329;-85
2021/04/28 20:18:43;;;;;;;8.85;7.97;;;;;;;;;;12751732;23;20005;-85
